West Chicago, Illinois
Current Conditions -  °F | °C
As of 2:52 AM on Thursday 23 Oct 2014 (Local Time) from KDPA Reporting Station
Clear Clear  
Wind Chill: 36°   Ceiling: Unl
Heat Index: 36°   Visibility: 8mi
Dew Point: 33°   Wind: 3mph
Humidity: 89%   Direction: 160°SSE
Pressure: 30.23"   Gusts: NA
Location:  41.88°N, 88.2°W
Report Text: KDPA 230752Z 16003KT 8SM CLR 02/01 A3023 RMK AO2 SLP240 T00220006
Loading
Personal Weather Stations






























Interactive Weather Map
Tropical Storm Tracking
New forecast layout! Learn more

10-Day Weather Forecast

Advertisements
Track Severe Weather on mobile